createdAt,value
2022-11-29T00:01:09.493Z,14.5
2022-11-29T00:09:27.671Z,15.6
2022-11-29T00:15:39.207Z,17.9
2022-11-29T00:21:53.571Z,19
2022-11-29T00:23:57.419Z,15.9
2022-11-29T00:26:01.261Z,16.9
2022-11-29T00:28:05.149Z,16.2
2022-11-29T00:30:08.940Z,16.5
2022-11-29T00:32:12.806Z,18.7
2022-11-29T00:34:16.646Z,14.6
2022-11-29T00:40:30.978Z,17.4
2022-11-29T00:46:42.530Z,17.8
2022-11-29T00:48:46.352Z,16.7
2022-11-29T00:50:53.026Z,17.1
2022-11-29T00:52:56.834Z,18.1
2022-11-29T00:55:00.679Z,14.5
2022-11-29T00:56:03.994Z,16.4
2022-11-29T01:00:11.714Z,17.5
2022-11-29T01:04:22.195Z,20.3
2022-11-29T01:06:26.032Z,15.9
2022-11-29T01:08:29.877Z,19.8
2022-11-29T01:10:33.720Z,17.9
2022-11-29T01:12:37.557Z,16.5
2022-11-29T01:14:41.656Z,15.2
2022-11-29T01:16:45.295Z,15.6
2022-11-29T01:27:07.279Z,16.3
2022-11-29T01:29:11.119Z,14.5
2022-11-29T01:31:15.025Z,17.6
2022-11-29T01:33:21.631Z,17.2
2022-11-29T01:35:25.470Z,14.3
2022-11-29T01:37:29.310Z,15.2
2022-11-29T01:39:33.145Z,16.4
2022-11-29T01:41:36.982Z,15
2022-11-29T01:43:40.830Z,14.5
2022-11-29T01:45:44.907Z,17.7
2022-11-29T01:47:51.356Z,16.8
2022-11-29T01:49:55.170Z,15.2
2022-11-29T01:51:59.029Z,17.1
2022-11-29T01:54:22.916Z,17
2022-11-29T01:56:26.814Z,15.8
2022-11-29T01:58:30.633Z,17.4
2022-11-29T02:00:37.271Z,18.3
2022-11-29T02:02:41.157Z,15.5
2022-11-29T02:04:45.302Z,17.2
2022-11-29T02:06:48.811Z,17.8
2022-11-29T02:15:06.982Z,19.7
2022-11-29T02:17:10.820Z,16
2022-11-29T02:19:14.664Z,14.8
2022-11-29T02:21:18.524Z,16.1
2022-11-29T02:23:22.370Z,16.4
2022-11-29T02:25:26.186Z,17.4
2022-11-29T02:27:30.036Z,16.6
2022-11-29T02:29:36.730Z,20.8
2022-11-29T02:31:40.539Z,15.4
2022-11-29T02:33:44.387Z,20.8
2022-11-29T02:35:48.229Z,19.3
2022-11-29T02:37:52.088Z,17.1
2022-11-29T02:39:55.968Z,19.2
2022-11-29T02:41:59.840Z,18.4
2022-11-29T02:48:14.172Z,15.1
2022-11-29T02:49:17.530Z,17.5
2022-11-29T02:51:21.355Z,14.4
2022-11-29T02:53:25.290Z,15.5
2022-11-29T02:55:29.173Z,17.5
2022-11-29T02:57:35.790Z,14.5
2022-11-29T02:59:39.623Z,15.6
2022-11-29T03:01:43.513Z,15.5
2022-11-29T03:03:47.340Z,15.9
2022-11-29T03:05:51.180Z,17.4
2022-11-29T03:07:55.046Z,17.1
2022-11-29T03:12:05.513Z,18.4
2022-11-29T03:14:09.386Z,15.7
2022-11-29T03:16:13.246Z,17.2
2022-11-29T03:18:17.084Z,17.4
2022-11-29T03:20:20.896Z,19.4
2022-11-29T03:22:24.738Z,14.8
2022-11-29T03:24:28.587Z,15.2
2022-11-29T03:26:34.957Z,16.4
2022-11-29T03:28:38.785Z,17.3
2022-11-29T03:30:42.701Z,17.9
2022-11-29T03:32:46.481Z,17.1
2022-11-29T03:34:55.704Z,15.9
2022-11-29T03:36:54.151Z,18
2022-11-29T03:38:58.025Z,17.3
2022-11-29T03:41:04.641Z,17
2022-11-29T03:43:08.515Z,17.1
2022-11-29T03:45:12.342Z,15.5
2022-11-29T03:46:15.673Z,18.8
2022-11-29T03:50:23.342Z,16
2022-11-29T03:52:27.184Z,15
2022-11-29T03:54:33.838Z,18.6
2022-11-29T03:56:37.674Z,15
2022-11-29T03:58:41.518Z,16.8
2022-11-29T04:00:45.379Z,17.6
2022-11-29T04:02:49.267Z,15.3
2022-11-29T04:04:53.076Z,14.1
2022-11-29T04:06:56.917Z,15.9
2022-11-29T04:09:03.572Z,16.2
2022-11-29T04:11:07.399Z,14.1
2022-11-29T04:13:11.256Z,15.6
2022-11-29T04:15:15.722Z,17.6
2022-11-29T04:19:22.777Z,13.5
2022-11-29T04:23:33.288Z,18.1
2022-11-29T04:25:37.138Z,12.3
2022-11-29T04:27:40.957Z,13.2
2022-11-29T04:31:48.649Z,17.1
2022-11-29T04:33:52.485Z,13.5
2022-11-29T04:35:56.314Z,13
2022-11-29T04:38:02.999Z,16.2
2022-11-29T04:40:06.842Z,16.2
2022-11-29T04:42:10.668Z,13.8
2022-11-29T04:43:13.999Z,16.7
2022-11-29T04:45:17.838Z,13.3
2022-11-29T04:47:23.169Z,16.2
2022-11-29T04:49:26.994Z,13.7
2022-11-29T04:51:33.656Z,17.4
2022-11-29T04:53:37.500Z,13.7
2022-11-29T04:55:41.343Z,14.2
2022-11-29T04:57:45.167Z,14.3
2022-11-29T04:59:49.009Z,15.6
2022-11-29T05:01:52.907Z,14.5
2022-11-29T05:03:57.226Z,14.6
2022-11-29T05:06:03.394Z,17.1
2022-11-29T05:08:07.205Z,16
2022-11-29T05:10:11.043Z,12.6
2022-11-29T05:20:33.293Z,13
2022-11-29T05:24:40.836Z,13.2
2022-11-29T05:26:44.683Z,14
2022-11-29T05:28:48.516Z,10.7
2022-11-29T05:30:52.390Z,13.8
2022-11-29T05:35:02.925Z,11.2
2022-11-29T05:41:32.558Z,10.5
2022-11-29T05:45:40.352Z,11
2022-11-29T05:47:47.003Z,11.4
2022-11-29T05:49:50.849Z,12.1
2022-11-29T05:51:54.675Z,13.3
2022-11-29T05:53:58.606Z,12.8
2022-11-29T05:56:02.417Z,10.6
2022-11-29T05:58:06.275Z,12.1
2022-11-29T06:00:10.125Z,13.3
2022-11-29T06:02:16.902Z,10.6
2022-11-29T06:04:20.694Z,11.7
2022-11-29T06:10:32.398Z,10.3
2022-11-29T06:14:40.055Z,11.1
2022-11-29T06:16:46.704Z,11.4
2022-11-29T06:18:50.652Z,11.5
2022-11-29T06:20:54.585Z,13
2022-11-29T06:22:58.539Z,10.8
2022-11-29T06:25:02.357Z,9.8
2022-11-29T06:27:06.198Z,10
2022-11-29T06:29:10.007Z,9.7
2022-11-29T06:33:20.518Z,11
2022-11-29T06:35:24.365Z,8.7
2022-11-29T06:36:27.673Z,10
2022-11-29T06:38:31.513Z,9.7
2022-11-29T06:40:35.355Z,9.9
2022-11-29T06:42:39.318Z,9.4
2022-11-29T06:44:46.219Z,8.3
2022-11-29T06:46:49.825Z,8.5
2022-11-29T06:48:56.571Z,9.1
2022-11-29T06:50:57.467Z,8.7
2022-11-29T06:53:01.315Z,9.2
2022-11-29T06:55:05.147Z,8.4
2022-11-29T06:57:09.017Z,7.5
2022-11-29T07:03:23.309Z,8.2
2022-11-29T07:07:31.033Z,6.9
2022-11-29T07:09:34.834Z,8.5
2022-11-29T07:11:38.672Z,7.6
2022-11-29T07:17:52.969Z,8.2
2022-11-29T07:19:56.817Z,9
2022-11-29T07:22:00.657Z,9.3
2022-11-29T07:24:04.576Z,7.3
2022-11-29T07:26:08.432Z,8.3
2022-11-29T07:28:15.080Z,8.2
2022-11-29T07:30:18.920Z,6.8
2022-11-29T07:32:22.795Z,6.8
2022-11-29T07:33:26.200Z,7.7
2022-11-29T07:35:30.161Z,6.8
2022-11-29T07:37:33.968Z,9.7
2022-11-29T07:39:37.814Z,7.2
2022-11-29T07:41:44.467Z,6.9
2022-11-29T07:43:48.299Z,6.1
2022-11-29T07:45:52.112Z,6.5
2022-11-29T07:47:55.955Z,7
2022-11-29T07:49:59.752Z,5.5
2022-11-29T07:52:03.611Z,6.8
2022-11-29T07:54:07.431Z,6.6
2022-11-29T07:56:14.208Z,8.4
2022-11-29T07:58:18.137Z,8
2022-11-29T08:00:21.820Z,7.2
2022-11-29T08:02:25.665Z,7.6
2022-11-29T08:04:29.476Z,9.2
2022-11-29T08:06:33.329Z,6.3
2022-11-29T08:08:43.552Z,6.3
2022-11-29T08:10:43.780Z,8
2022-11-29T08:12:47.598Z,6.3
2022-11-29T08:14:51.416Z,7.4
2022-11-29T08:16:55.250Z,6.7
2022-11-29T08:18:59.109Z,6
2022-11-29T08:21:02.932Z,7.9
2022-11-29T08:23:06.740Z,6.8
2022-11-29T08:25:13.472Z,9.6
2022-11-29T08:27:17.326Z,7.6
2022-11-29T08:29:21.183Z,6.3
2022-11-29T08:34:32.126Z,6.5
2022-11-29T08:36:35.983Z,7
2022-11-29T08:38:42.587Z,6
2022-11-29T08:40:46.429Z,5.6
2022-11-29T08:42:50.257Z,5.5
2022-11-29T08:44:54.178Z,7.6
2022-11-29T08:46:58.016Z,6
2022-11-29T08:49:01.833Z,7.4
2022-11-29T08:51:05.702Z,5.8
2022-11-29T08:53:12.348Z,7.3
2022-11-29T08:55:16.177Z,5.7
2022-11-29T08:59:23.805Z,9.5
2022-11-29T09:01:27.683Z,7.6
2022-11-29T09:03:31.477Z,6.7
2022-11-29T09:05:35.317Z,7.4
2022-11-29T09:07:42.005Z,7.6
2022-11-29T09:09:45.794Z,8
2022-11-29T09:11:49.895Z,7.4
2022-11-29T09:13:53.454Z,7.4
2022-11-29T09:15:57.303Z,6.9
2022-11-29T09:18:01.132Z,6.3
2022-11-29T09:20:04.945Z,7.5
2022-11-29T09:22:11.616Z,7.4
2022-11-29T09:24:15.440Z,7
2022-11-29T09:26:19.268Z,6
2022-11-29T09:28:37.406Z,7.5
2022-11-29T09:45:10.896Z,6.9
2022-11-29T09:49:21.422Z,5
2022-11-29T09:51:25.239Z,8.1
2022-11-29T09:53:29.065Z,5.9
2022-11-29T09:57:36.777Z,6.2
2022-11-29T10:05:54.928Z,7.6
2022-11-29T10:07:58.833Z,8.8
2022-11-29T10:10:02.632Z,8.7
2022-11-29T10:20:24.702Z,9.9
2022-11-29T10:23:31.871Z,11.7
2022-11-29T10:25:35.732Z,11.6
2022-11-29T10:27:39.576Z,12
2022-11-29T10:29:43.438Z,7.5
2022-11-29T10:31:50.128Z,11.5
2022-11-29T10:33:53.981Z,10.2
2022-11-29T10:35:57.815Z,10
2022-11-29T10:38:30.369Z,10.9
2022-11-29T10:40:05.547Z,8.4
2022-11-29T10:42:09.436Z,10.2
2022-11-29T10:44:14.778Z,8.9
2022-11-29T10:46:21.469Z,9.6
2022-11-29T10:48:25.290Z,10
2022-11-29T10:50:29.160Z,10.4
2022-11-29T10:52:33.020Z,10.2
2022-11-29T10:54:36.878Z,10.5
2022-11-29T10:56:40.738Z,10.2
2022-11-29T10:58:44.576Z,8.8
2022-11-29T11:00:51.327Z,10.9
2022-11-29T11:02:55.136Z,11.4
2022-11-29T11:04:58.997Z,10.2
2022-11-29T11:07:02.862Z,12.1
2022-11-29T11:09:06.724Z,12.8
2022-11-29T11:11:10.605Z,11.6
2022-11-29T11:13:14.476Z,10.5
2022-11-29T11:15:21.155Z,12.5
2022-11-29T11:19:28.872Z,12.2
2022-11-29T11:20:32.232Z,10.6
2022-11-29T11:26:43.828Z,10
2022-11-29T11:28:50.494Z,10.3
2022-11-29T11:30:54.438Z,10.8
2022-11-29T11:32:58.244Z,9.3
2022-11-29T11:37:05.999Z,12.5
2022-11-29T11:39:09.884Z,10.6
2022-11-29T11:41:13.739Z,10
2022-11-29T11:45:24.309Z,10.7
2022-11-29T11:47:28.195Z,10
2022-11-29T11:51:35.941Z,11.4
2022-11-29T11:55:43.709Z,12.1
2022-11-29T11:59:54.295Z,10.2
2022-11-29T12:01:58.159Z,9.7
2022-11-29T12:06:05.942Z,9.6
2022-11-29T12:08:09.929Z,10.7
2022-11-29T12:10:13.739Z,11.6
2022-11-29T12:12:20.398Z,11.5
2022-11-29T12:14:24.274Z,10.9
2022-11-29T12:16:28.191Z,10.9
2022-11-29T12:19:35.408Z,9.8
2022-11-29T12:21:39.262Z,8.8
2022-11-29T12:23:43.123Z,9
2022-11-29T12:25:49.876Z,11.9
2022-11-29T12:27:53.691Z,8.7
2022-11-29T12:29:57.562Z,8
2022-11-29T12:32:01.430Z,9.3
2022-11-29T12:34:05.317Z,8.7
2022-11-29T12:36:09.193Z,9.1
2022-11-29T12:38:13.067Z,8.8
2022-11-29T12:40:19.727Z,9.1
2022-11-29T12:42:23.605Z,8.5
2022-11-29T12:44:27.485Z,7.5
2022-11-29T12:46:31.406Z,10.4
2022-11-29T12:48:35.229Z,9.8
2022-11-29T12:50:39.109Z,9.1
2022-11-29T12:52:42.989Z,9
2022-11-29T12:54:49.651Z,8.4
2022-11-29T12:56:53.547Z,8.7
2022-11-29T12:58:57.414Z,9.4
2022-11-29T13:03:05.201Z,9
2022-11-29T13:09:19.587Z,9.5
2022-11-29T13:11:23.487Z,9.1
2022-11-29T13:13:27.364Z,9.5
2022-11-29T13:15:57.018Z,12.5
2022-11-29T13:18:00.826Z,9.5
2022-11-29T13:20:04.717Z,12
2022-11-29T13:22:11.390Z,9
2022-11-29T13:24:15.270Z,10
2022-11-29T13:26:19.135Z,8.4
2022-11-29T13:28:23.023Z,10.1
2022-11-29T13:30:26.911Z,8.7
2022-11-29T13:32:30.766Z,7.4
2022-11-29T13:34:34.639Z,7.6
2022-11-29T13:36:41.329Z,7.7
2022-11-29T13:38:45.220Z,7.5
2022-11-29T13:40:49.097Z,9.1
2022-11-29T13:44:56.826Z,7.5
2022-11-29T13:47:00.694Z,7.3
2022-11-29T13:49:04.570Z,6.8
2022-11-29T13:51:11.276Z,9.1
2022-11-29T13:53:15.130Z,9.2
2022-11-29T13:55:18.958Z,7.7
2022-11-29T13:57:22.836Z,7.9
2022-11-29T13:59:26.706Z,6.4
2022-11-29T14:01:30.666Z,9.1
2022-11-29T14:03:34.408Z,9
2022-11-29T14:05:41.076Z,8.5
2022-11-29T14:07:44.979Z,7.5
2022-11-29T14:09:48.830Z,7.5
2022-11-29T14:10:52.141Z,9.2
2022-11-29T14:12:56.022Z,8.5
2022-11-29T14:17:03.712Z,8.7
2022-11-29T14:19:10.394Z,8.9
2022-11-29T14:21:14.262Z,8.9
2022-11-29T14:23:18.103Z,7.4
2022-11-29T14:27:25.791Z,7.4
2022-11-29T14:29:29.646Z,8.6
2022-11-29T14:31:33.547Z,9.7
2022-11-29T14:33:40.179Z,8.7
2022-11-29T14:35:44.049Z,9.2
2022-11-29T14:37:47.931Z,10.7
2022-11-29T14:41:55.628Z,9.6
2022-11-29T14:43:59.547Z,10.6
2022-11-29T14:50:13.898Z,9.5
2022-11-29T14:52:17.754Z,9.1
2022-11-29T14:56:25.492Z,8.8
2022-11-29T15:00:33.198Z,9.1
2022-11-29T15:02:39.924Z,11.7
2022-11-29T15:04:43.961Z,9.4
2022-11-29T15:06:52.864Z,7.7
2022-11-29T15:07:51.068Z,9
2022-11-29T15:09:54.814Z,10.1
2022-11-29T15:11:58.676Z,8.8
2022-11-29T15:14:02.558Z,10.5
2022-11-29T15:16:09.538Z,11.4
2022-11-29T15:18:13.102Z,9.5
2022-11-29T15:20:16.966Z,8.8
2022-11-29T15:22:20.833Z,11.2
2022-11-29T15:24:28.339Z,9.5
2022-11-29T15:26:28.563Z,9.7
2022-11-29T15:28:32.417Z,9.3
2022-11-29T15:30:39.101Z,11.1
2022-11-29T15:32:42.976Z,11.1
2022-11-29T15:34:47.025Z,8.8
2022-11-29T15:36:50.702Z,10.6
2022-11-29T15:38:54.578Z,11.1
2022-11-29T15:40:58.418Z,9.7
2022-11-29T15:43:02.277Z,9.6
2022-11-29T15:53:24.394Z,12.2
2022-11-29T15:55:28.270Z,11.5
2022-11-29T15:57:32.128Z,9.8
2022-11-29T15:59:38.808Z,12.6
2022-11-29T16:01:42.750Z,12.5
2022-11-29T16:03:46.521Z,12.8
2022-11-29T16:04:50.332Z,11.7
2022-11-29T16:06:53.711Z,10.5
2022-11-29T16:08:57.598Z,11.7
2022-11-29T16:11:01.446Z,9.4
2022-11-29T16:13:08.120Z,11.7
2022-11-29T16:17:15.887Z,9.6
2022-11-29T16:19:19.729Z,9.6
2022-11-29T16:23:27.461Z,9
2022-11-29T16:27:37.987Z,11.6
2022-11-29T16:29:41.843Z,9.6
2022-11-29T16:33:49.563Z,11.3
2022-11-29T16:35:53.440Z,10.1
2022-11-29T16:37:57.291Z,11.1
2022-11-29T16:40:01.165Z,12.6
2022-11-29T16:42:09.343Z,11.5
2022-11-29T16:44:13.199Z,11.9
2022-11-29T16:46:17.106Z,11.8
2022-11-29T16:48:20.923Z,11.1
2022-11-29T16:50:24.787Z,12.3
2022-11-29T16:52:28.628Z,10.5
2022-11-29T16:54:32.485Z,9.8
2022-11-29T16:56:39.165Z,10.8
2022-11-29T16:59:17.372Z,9
2022-11-29T17:00:47.002Z,12.4
2022-11-29T17:03:16.500Z,12.1
2022-11-29T17:05:20.380Z,11.5
2022-11-29T17:09:30.915Z,12.7
2022-11-29T17:13:38.632Z,11
2022-11-29T17:15:42.491Z,12.1
2022-11-29T17:17:46.345Z,11.4
2022-11-29T17:19:50.204Z,13.1
2022-11-29T17:21:54.067Z,13.6
2022-11-29T17:24:00.724Z,12.9
2022-11-29T17:26:04.578Z,13.9
2022-11-29T17:28:08.441Z,12.9
2022-11-29T17:30:12.305Z,15.5
2022-11-29T17:32:16.171Z,12.7
2022-11-29T17:34:20.018Z,12.8
2022-11-29T17:36:23.878Z,14
2022-11-29T17:38:30.531Z,14.4
2022-11-29T17:40:34.388Z,12.4
2022-11-29T17:42:38.272Z,14.6
2022-11-29T17:44:42.126Z,14.4
2022-11-29T17:57:08.036Z,14.1
2022-11-29T18:02:19.137Z,12.5
2022-11-29T18:04:22.952Z,13.4
2022-11-29T18:06:29.609Z,16.5
2022-11-29T18:08:33.461Z,14.7
2022-11-29T18:10:37.318Z,13
2022-11-29T18:12:41.194Z,14.1
2022-11-29T18:14:45.023Z,13.2
2022-11-29T18:16:48.983Z,15.6
2022-11-29T18:18:52.730Z,14.9
2022-11-29T18:20:59.387Z,17.1
2022-11-29T18:23:07.842Z,13.3
2022-11-29T18:25:37.191Z,13.9
2022-11-29T18:27:10.963Z,15.8
2022-11-29T18:29:14.794Z,15
2022-11-29T18:31:18.805Z,14.2
2022-11-29T18:33:22.536Z,13.9
2022-11-29T18:35:29.186Z,17.2
2022-11-29T18:41:40.757Z,13.4
2022-11-29T18:43:44.613Z,14.6
2022-11-29T18:45:48.572Z,12.5
2022-11-29T18:47:52.323Z,14.3
2022-11-29T18:49:59.040Z,15
2022-11-29T18:52:02.863Z,14.7
2022-11-29T18:54:06.718Z,13.8
2022-11-29T18:59:18.020Z,13.5
2022-11-29T19:01:21.741Z,12.9
2022-11-29T19:03:28.335Z,15
2022-11-29T19:05:32.180Z,12.6
2022-11-29T19:07:36.133Z,13.6
2022-11-29T19:09:39.932Z,16.7
2022-11-29T19:11:43.818Z,13.4
2022-11-29T19:13:47.635Z,13.9
2022-11-29T19:15:51.550Z,13.5
2022-11-29T19:17:58.169Z,16.1
2022-11-29T19:24:09.766Z,15.5
2022-11-29T19:26:13.618Z,14.1
2022-11-29T19:28:17.505Z,15.3
2022-11-29T19:30:21.375Z,14.3
2022-11-29T19:32:28.059Z,16
2022-11-29T19:34:31.880Z,19.9
2022-11-29T19:36:35.745Z,14.5
2022-11-29T19:38:39.615Z,15.2
2022-11-29T19:40:43.501Z,16.3
2022-11-29T19:42:47.327Z,13.4
2022-11-29T19:45:15.941Z,23.5
2022-11-29T19:46:57.863Z,15.3
2022-11-29T19:49:01.720Z,17.5
2022-11-29T19:51:05.581Z,16.3
2022-11-29T19:58:20.499Z,16.1
2022-11-29T20:00:27.187Z,16.1
2022-11-29T20:02:31.108Z,13.6
2022-11-29T20:04:34.873Z,16.8
2022-11-29T20:06:38.727Z,14
2022-11-29T20:08:42.581Z,19.5
2022-11-29T20:10:46.473Z,20
2022-11-29T20:12:50.317Z,15
2022-11-29T20:14:56.984Z,14.9
2022-11-29T20:17:00.835Z,13.7
2022-11-29T20:19:04.692Z,14.1
2022-11-29T20:21:08.576Z,12.8
2022-11-29T20:23:12.423Z,14.8
2022-11-29T20:25:16.295Z,14.1
2022-11-29T20:27:20.129Z,15.2
2022-11-29T20:29:26.824Z,14.5
2022-11-29T20:31:30.774Z,12.6
2022-11-29T20:33:34.533Z,13.7
2022-11-29T20:35:38.399Z,14.2
2022-11-29T20:37:42.247Z,15.9
2022-11-29T20:39:46.571Z,14.3
2022-11-29T20:41:49.973Z,16.3
2022-11-29T20:43:56.618Z,17.4
2022-11-29T20:46:00.498Z,17.3
2022-11-29T20:48:04.324Z,15.9
2022-11-29T20:52:37.827Z,14.9
2022-11-29T20:54:41.655Z,14.8
2022-11-29T20:56:48.331Z,17.8
2022-11-29T20:58:52.263Z,14.6
2022-11-29T21:00:56.206Z,16.7
2022-11-29T21:03:00.149Z,14.2
2022-11-29T21:05:03.947Z,15.9
2022-11-29T21:07:07.873Z,17
2022-11-29T21:09:11.710Z,14.4
2022-11-29T21:11:18.387Z,15.9
2022-11-29T21:13:22.247Z,15.3
2022-11-29T21:17:33.449Z,15.2
2022-11-29T21:19:33.993Z,16.4
2022-11-29T21:21:37.917Z,16.7
2022-11-29T21:23:41.789Z,12.4
2022-11-29T21:25:48.536Z,16.8
2022-11-29T21:27:52.366Z,14.2
2022-11-29T21:29:56.240Z,14.6
2022-11-29T21:32:00.088Z,15.9
2022-11-29T21:34:03.900Z,18
2022-11-29T21:36:07.764Z,18
2022-11-29T21:38:11.565Z,16.8
2022-11-29T21:40:18.234Z,16.6
2022-11-29T21:42:22.059Z,15.4
2022-11-29T21:44:25.919Z,13.6
2022-11-29T21:45:29.356Z,15.2
2022-11-29T21:47:33.171Z,14.1
2022-11-29T21:49:36.996Z,13.7
2022-11-29T21:51:40.839Z,14.1
2022-11-29T21:53:47.502Z,14.3
2022-11-29T21:55:51.347Z,13.1
2022-11-29T21:59:59.035Z,14.5
2022-11-29T22:06:10.546Z,15.2
2022-11-29T22:08:17.171Z,15.9
2022-11-29T22:10:20.998Z,13.8
2022-11-29T22:14:28.659Z,15.5
2022-11-29T22:18:36.437Z,12.3
2022-11-29T22:20:40.360Z,15.4
2022-11-29T22:22:47.005Z,14.9
2022-11-29T22:24:50.944Z,15.8
2022-11-29T22:26:54.800Z,15.8
2022-11-29T22:28:58.738Z,14
2022-11-29T22:31:03.332Z,12.6
2022-11-29T22:33:13.111Z,15.4
2022-11-29T22:35:11.046Z,15.2
2022-11-29T22:37:19.327Z,13.8
2022-11-29T22:39:23.102Z,12
2022-11-29T22:41:27.030Z,16.1
2022-11-29T22:42:30.337Z,14.1
2022-11-29T22:44:34.141Z,14.7
2022-11-29T22:46:38.014Z,13.3
2022-11-29T22:48:41.818Z,14.9
2022-11-29T22:50:48.434Z,14.3
2022-11-29T22:52:52.262Z,14.7
2022-11-29T22:54:59.893Z,14.4
2022-11-29T22:56:59.929Z,15.8
2022-11-29T22:59:03.847Z,15.1
2022-11-29T23:01:07.731Z,13.5
2022-11-29T23:03:11.479Z,13.3
2022-11-29T23:05:18.108Z,15.3
2022-11-29T23:07:21.980Z,14.4
2022-11-29T23:09:25.768Z,14.9
2022-11-29T23:11:29.589Z,14.5
2022-11-29T23:13:33.387Z,14.2
2022-11-29T23:15:37.215Z,15.5
2022-11-29T23:17:41.141Z,14
2022-11-29T23:19:47.773Z,14.6
2022-11-29T23:21:51.599Z,13.6
2022-11-29T23:25:59.328Z,12.4
2022-11-29T23:28:03.114Z,15.3
2022-11-29T23:30:06.966Z,13.8
2022-11-29T23:32:10.872Z,14
2022-11-29T23:34:17.482Z,14.8
2022-11-29T23:36:21.312Z,14.4
2022-11-29T23:38:25.141Z,13.5
2022-11-29T23:39:28.472Z,16.8
2022-11-29T23:41:32.399Z,15
2022-11-29T23:43:36.219Z,14
2022-11-29T23:45:40.145Z,12.7
2022-11-29T23:49:50.588Z,14.2
2022-11-29T23:53:58.328Z,12.6
2022-11-29T23:56:02.139Z,13.8
